Hlavní strana
METAR-TAF:

METAR-TAF

Letiště :

Havre City-County Airport

Havre, Montana, Spojené státy americké

zeměpisná šířka: 48-32-34N, zeměpisná délka: 109-45-48W, výška: 789 m

Aktuální stav počasí

Zpráva byla vytvořena před 37 minutami, v 21:53 UTC
Jihozápadní vítr 13 kt
Teplota 22°C
Vlhkost vzduchu 17%
Tlak 1021 hPa
Viditelnost: 16.1 km
Jasno

METAR: KHVR 172153Z AUTO 22013KT 10SM CLR 22/M04 A3016 RMK AO2 SLP218 T02171039

Čas: 16:30 (22:30 UTC)

Předpověď počasí

Zpráva byla vytvořena před 5 hodinami a 8 minutami, v 17:22 UTC
Předpověď platná od 17 v 18 UTC do 18 v 18 UTC
Západojihozápadní vítr 10 kt
Viditelnost: 10 km
Jasno

TAF: KHVR 171722Z 1718/1818 24010KT P6SM SKC

Stav a předpovědi počasí z více než 4 000 letišť (zprávy METAR a TAF).

Červené a žluté tečky na mapě představují dostupné meteorologické stanice.

Když kurzor umístíte na tečku, zobrazí se název stanice.

Pak kliknutím zobrazíte stav a předpověď počasí.

Chcete-li změnit mapu, kliknutím na zelené tlačítko se znaménkem +mapu přiblížíte, kliknutím na zelené tlačítko se znaménkem – mapu oddálíte a kliknutím na zelené šipky přejdete na sousední mapy.


METAR-TAF: